Time;durP1;ratioP1;P1;durP2;ratioP2;P2;SDS_P1;SDS_P2;PMS_P1;PMS_P2;Temp;Humidity;BMP_temperature;BMP_pressure;BME280_temperature;BME280_humidity;BME280_pressure;Samples;Min_cycle;Max_cycle;Signal;HPM_P1;HPM_P2
2022/04/28 00:02:09;;;;;;;;;;;13.60;99.90;;;;;;5012685;28;19913;-74
2022/04/28 00:04:35;;;;;;;;;;;13.50;99.90;;;;;;5011236;28;19956;-74
2022/04/28 00:07:00;;;;;;;;;;;13.60;99.90;;;;;;5011174;28;19960;-74
2022/04/28 00:09:30;;;;;;;;;;;13.60;99.90;;;;;;5010884;28;20270;-75
2022/04/28 00:11:55;;;;;;;;;;;13.60;99.90;;;;;;5013575;28;19996;-75
2022/04/28 00:14:21;;;;;;;;;;;13.50;99.90;;;;;;5012227;28;19951;-75
2022/04/28 00:16:47;;;;;;;;;;;13.60;99.90;;;;;;5004950;28;19929;-76
2022/04/28 00:19:13;;;;;;;;;;;13.60;99.90;;;;;;5005847;28;20327;-75
2022/04/28 00:21:39;;;;;;;;;;;13.50;99.90;;;;;;5011226;28;19921;-74
2022/04/28 00:24:05;;;;;;;;;;;13.50;99.90;;;;;;5012066;28;19910;-74
2022/04/28 00:26:30;;;;;;;;;;;13.50;99.90;;;;;;5007991;28;19920;-75
2022/04/28 00:28:56;;;;;;;;;;;13.50;99.90;;;;;;5008601;28;19913;-75
2022/04/28 00:31:21;;;;;;;;;;;13.50;99.90;;;;;;5009717;28;20373;-74
2022/04/28 00:33:48;;;;;;;;;;;13.50;99.90;;;;;;5012066;28;19909;-74
2022/04/28 00:36:14;;;;;;;;;;;13.50;99.90;;;;;;5011119;28;19910;-74
2022/04/28 00:38:39;;;;;;;;;;;13.50;99.90;;;;;;5009687;28;19963;-74
2022/04/28 00:41:05;;;;;;;;;;;13.50;99.90;;;;;;5007948;28;19913;-74
2022/04/28 00:43:31;;;;;;;;;;;13.50;99.90;;;;;;5006177;28;19909;-74
2022/04/28 00:45:57;;;;;;;;;;;13.40;99.90;;;;;;5009024;28;19963;-74
2022/04/28 00:51:07;;;;;;;;;;;13.40;99.90;;;;;;5008178;28;20412;-74
2022/04/28 00:53:48;;;;;;;;;;;13.50;99.90;;;;;;5010366;28;20297;-74
2022/04/28 00:56:14;;;;;;;;;;;13.40;99.90;;;;;;5005951;28;20008;-75
2022/04/28 00:58:40;;;;;;;;;;;13.40;99.90;;;;;;5007795;28;19924;-75
2022/04/28 01:01:06;;;;;;;;;;;13.40;99.90;;;;;;5009553;28;19991;-73
2022/04/28 01:03:31;;;;;;;;;;;13.40;99.90;;;;;;5006644;28;19910;-74
2022/04/28 01:05:57;;;;;;;;;;;13.30;99.90;;;;;;5005968;28;20405;-74
2022/04/28 01:08:23;;;;;;;;;;;13.40;99.90;;;;;;5003658;28;19910;-73
2022/04/28 01:10:49;;;;;;;;;;;13.40;99.90;;;;;;5002245;28;20486;-74
2022/04/28 01:13:14;;;;;;;;;;;13.40;99.90;;;;;;5001881;28;20457;-75
2022/04/28 01:15:46;;;;;;;;;;;13.40;99.90;;;;;;5001507;28;19909;-75
2022/04/28 01:18:12;;;;;;;;;;;13.50;99.90;;;;;;5008725;28;20017;-75
2022/04/28 01:20:38;;;;;;;;;;;13.50;99.90;;;;;;5011500;28;19941;-75
2022/04/28 01:23:04;;;;;;;;;;;13.50;99.90;;;;;;5005725;28;20044;-75
2022/04/28 01:25:30;;;;;;;;;;;13.40;99.90;;;;;;5000095;28;20346;-75
2022/04/28 01:27:56;;;;;;;;;;;13.30;99.90;;;;;;5002084;28;20035;-75
2022/04/28 01:30:22;;;;;;;;;;;13.30;99.90;;;;;;5003568;28;19909;-75
2022/04/28 01:32:47;;;;;;;;;;;13.30;99.90;;;;;;4999962;28;20267;-75
2022/04/28 01:35:13;;;;;;;;;;;13.20;99.90;;;;;;4997746;28;19909;-75
2022/04/28 01:37:38;;;;;;;;;;;13.20;99.90;;;;;;4993486;28;20340;-75
2022/04/28 01:40:06;;;;;;;;;;;13.10;99.90;;;;;;5002360;28;20007;-75
2022/04/28 01:42:32;;;;;;;;;;;13.10;99.90;;;;;;5000295;28;20292;-74
2022/04/28 01:44:57;;;;;;;;;;;13.10;99.90;;;;;;5002261;28;19916;-73
2022/04/28 01:47:24;;;;;;;;;;;13.10;99.90;;;;;;5009800;28;19909;-74
2022/04/28 01:49:49;;;;;;;;;;;13.10;99.90;;;;;;5010120;28;20316;-74
2022/04/28 01:54:59;;;;;;;;;;;13.00;99.90;;;;;;5002764;28;20289;-73
2022/04/28 01:57:29;;;;;;;;;;;13.00;99.90;;;;;;5010085;28;19918;-74
2022/04/28 01:59:56;;;;;;;;;;;13.00;99.90;;;;;;5009646;28;19916;-74
2022/04/28 02:02:22;;;;;;;;;;;13.00;99.90;;;;;;5007516;28;20264;-74
2022/04/28 02:04:48;;;;;;;;;;;13.00;99.90;;;;;;5006628;28;19964;-74
2022/04/28 02:07:14;;;;;;;;;;;13.00;99.90;;;;;;5007187;28;19913;-77
2022/04/28 02:09:40;;;;;;;;;;;13.10;99.90;;;;;;5009546;28;19936;-74
2022/04/28 02:12:06;;;;;;;;;;;13.10;99.90;;;;;;5007333;28;20091;-73
2022/04/28 02:14:32;;;;;;;;;;;13.10;99.90;;;;;;5004771;28;19910;-74
2022/04/28 02:16:57;;;;;;;;;;;13.10;99.90;;;;;;5002623;28;19959;-74
2022/04/28 02:19:24;;;;;;;;;;;13.10;99.90;;;;;;5007502;28;19917;-74
2022/04/28 02:21:50;;;;;;;;;;;13.10;99.90;;;;;;5007965;28;19962;-74
2022/04/28 02:24:15;;;;;;;;;;;13.20;99.90;;;;;;5008255;28;19913;-74
2022/04/28 02:26:41;;;;;;;;;;;13.20;99.90;;;;;;5008859;28;19960;-74
2022/04/28 02:29:06;;;;;;;;;;;13.30;99.90;;;;;;5007300;28;19916;-74
2022/04/28 02:31:32;;;;;;;;;;;13.40;99.90;;;;;;5006203;28;20374;-75
2022/04/28 02:33:57;;;;;;;;;;;13.30;99.90;;;;;;5007109;28;19956;-75
2022/04/28 02:36:24;;;;;;;;;;;13.40;99.90;;;;;;5008834;28;19974;-75
2022/04/28 02:38:50;;;;;;;;;;;13.30;99.90;;;;;;5007097;28;20450;-75
2022/04/28 02:41:20;;;;;;;;;;;13.30;99.90;;;;;;5007654;28;20099;-74
2022/04/28 02:43:46;;;;;;;;;;;13.30;99.90;;;;;;5007191;28;19913;-75
2022/04/28 02:46:11;;;;;;;;;;;13.30;99.90;;;;;;5009598;28;19905;-74
2022/04/28 02:48:37;;;;;;;;;;;13.20;99.90;;;;;;5007865;28;19917;-75
2022/04/28 02:51:03;;;;;;;;;;;13.20;99.90;;;;;;5009854;28;19905;-75
2022/04/28 02:53:28;;;;;;;;;;;13.20;99.90;;;;;;5008224;28;19915;-75
2022/04/28 02:55:54;;;;;;;;;;;13.10;99.90;;;;;;5005982;28;19987;-74
2022/04/28 02:58:19;;;;;;;;;;;13.10;99.90;;;;;;5006077;28;19913;-75
2022/04/28 03:00:45;;;;;;;;;;;13.10;99.90;;;;;;5007214;28;20330;-75
2022/04/28 03:03:11;;;;;;;;;;;13.00;99.90;;;;;;5008468;28;20227;-74
2022/04/28 03:11:09;;;;;;;;;;;12.80;99.90;;;;;;5008960;28;20420;-74
2022/04/28 03:13:35;;;;;;;;;;;12.70;99.90;;;;;;5011007;28;20419;-74
2022/04/28 03:16:01;;;;;;;;;;;12.70;99.90;;;;;;5003032;28;19906;-74
2022/04/28 03:18:27;;;;;;;;;;;12.80;99.90;;;;;;5002304;28;19917;-74
2022/04/28 03:20:54;;;;;;;;;;;12.80;99.90;;;;;;5002442;28;19967;-75
2022/04/28 03:23:21;;;;;;;;;;;12.80;99.90;;;;;;5001105;28;20362;-73
2022/04/28 03:25:48;;;;;;;;;;;12.80;99.90;;;;;;5004049;28;19925;-74
2022/04/28 03:28:13;;;;;;;;;;;12.70;99.90;;;;;;5007663;28;20008;-74
2022/04/28 03:30:40;;;;;;;;;;;12.60;99.90;;;;;;5010160;28;19989;-74
2022/04/28 03:33:05;;;;;;;;;;;12.60;99.90;;;;;;5001586;28;19914;-74
2022/04/28 03:35:31;;;;;;;;;;;12.60;99.90;;;;;;5009048;28;19964;-74
2022/04/28 03:37:59;;;;;;;;;;;12.60;99.90;;;;;;5004441;28;20376;-74
2022/04/28 03:40:25;;;;;;;;;;;12.60;99.90;;;;;;5003040;28;19920;-74
2022/04/28 03:42:50;;;;;;;;;;;12.60;99.90;;;;;;5003114;28;20305;-74
2022/04/28 03:45:16;;;;;;;;;;;12.60;99.90;;;;;;5002186;28;19917;-74
2022/04/28 03:47:42;;;;;;;;;;;12.70;99.90;;;;;;5004815;28;20369;-74
2022/04/28 03:50:08;;;;;;;;;;;12.70;99.90;;;;;;5002674;28;19915;-73
2022/04/28 03:52:33;;;;;;;;;;;12.70;99.90;;;;;;5003727;28;19923;-74
2022/04/28 03:54:59;;;;;;;;;;;12.70;99.90;;;;;;5003687;28;20008;-73
2022/04/28 03:57:25;;;;;;;;;;;12.70;99.90;;;;;;5003339;28;19918;-73
2022/04/28 03:59:50;;;;;;;;;;;12.80;99.90;;;;;;5003774;28;19925;-73
2022/04/28 04:02:16;;;;;;;;;;;12.80;99.90;;;;;;5003455;28;19910;-74
2022/04/28 04:04:41;;;;;;;;;;;12.80;99.90;;;;;;5004124;28;20001;-74
2022/04/28 04:07:07;;;;;;;;;;;12.80;99.90;;;;;;5004394;28;20324;-74
2022/04/28 04:09:33;;;;;;;;;;;12.80;99.90;;;;;;5003515;28;19916;-74
2022/04/28 04:11:58;;;;;;;;;;;12.80;99.90;;;;;;5004889;28;19953;-75
2022/04/28 04:14:24;;;;;;;;;;;12.80;99.90;;;;;;5004098;28;19921;-74
2022/04/28 04:16:50;;;;;;;;;;;12.80;99.90;;;;;;5004498;28;19909;-75
2022/04/28 04:19:15;;;;;;;;;;;12.80;99.90;;;;;;5003200;28;19916;-74
2022/04/28 04:21:41;;;;;;;;;;;12.90;99.90;;;;;;5003907;28;19910;-74
2022/04/28 04:24:07;;;;;;;;;;;12.90;99.90;;;;;;5003788;28;19929;-75
2022/04/28 04:26:32;;;;;;;;;;;12.90;99.90;;;;;;5003437;28;19914;-74
2022/04/28 04:28:58;;;;;;;;;;;12.80;99.90;;;;;;5002020;28;19909;-74
2022/04/28 04:34:08;;;;;;;;;;;12.80;99.90;;;;;;5010391;28;20380;-74
2022/04/28 04:36:34;;;;;;;;;;;12.80;99.90;;;;;;5010146;28;19917;-74
2022/04/28 04:38:59;;;;;;;;;;;12.80;99.90;;;;;;5010884;28;19913;-73
2022/04/28 04:41:25;;;;;;;;;;;12.90;99.90;;;;;;5008444;28;19917;-75
2022/04/28 04:43:50;;;;;;;;;;;13.00;99.90;;;;;;5009670;28;19916;-75
2022/04/28 04:46:16;;;;;;;;;;;13.00;99.90;;;;;;5011885;28;19988;-76
2022/04/28 04:48:41;;;;;;;;;;;13.10;99.90;;;;;;5008393;28;19909;-75
2022/04/28 04:51:07;;;;;;;;;;;13.10;99.90;;;;;;5009729;28;19960;-75
2022/04/28 04:53:33;;;;;;;;;;;13.20;99.90;;;;;;5008545;28;19976;-75
2022/04/28 04:55:58;;;;;;;;;;;13.20;99.90;;;;;;5008644;28;20413;-73
2022/04/28 04:58:24;;;;;;;;;;;13.20;99.90;;;;;;5010531;28;19936;-76
2022/04/28 05:00:50;;;;;;;;;;;13.30;99.90;;;;;;5006826;28;20080;-73
2022/04/28 05:03:15;;;;;;;;;;;13.40;99.90;;;;;;5011530;28;19913;-75
2022/04/28 05:05:43;;;;;;;;;;;13.30;99.90;;;;;;5009452;28;19910;-75
2022/04/28 05:08:08;;;;;;;;;;;13.30;99.90;;;;;;5008440;28;20368;-75
2022/04/28 05:10:34;;;;;;;;;;;13.30;99.90;;;;;;5010348;28;19905;-75
2022/04/28 05:13:00;;;;;;;;;;;13.30;99.90;;;;;;5008858;28;19909;-75
2022/04/28 05:15:25;;;;;;;;;;;13.50;99.90;;;;;;5011149;28;20345;-75
2022/04/28 05:17:51;;;;;;;;;;;13.60;99.90;;;;;;5007027;28;20007;-75
2022/04/28 05:20:16;;;;;;;;;;;13.50;99.90;;;;;;5010633;28;19909;-76
2022/04/28 05:22:42;;;;;;;;;;;13.50;99.90;;;;;;5009929;28;19905;-74
2022/04/28 05:25:08;;;;;;;;;;;13.70;99.90;;;;;;5004561;28;19969;-77
2022/04/28 05:27:33;;;;;;;;;;;13.80;99.90;;;;;;5005484;28;19909;-74
2022/04/28 05:29:59;;;;;;;;;;;13.70;99.90;;;;;;5007071;28;19949;-75
2022/04/28 05:32:24;;;;;;;;;;;13.80;99.90;;;;;;5006470;28;20430;-75
2022/04/28 05:34:50;;;;;;;;;;;13.80;99.90;;;;;;5008940;28;19964;-75
2022/04/28 05:37:16;;;;;;;;;;;13.90;99.90;;;;;;5009340;28;19914;-76
2022/04/28 05:39:42;;;;;;;;;;;13.90;99.90;;;;;;5009562;28;19913;-75
2022/04/28 05:42:08;;;;;;;;;;;14.00;99.90;;;;;;5004877;28;19910;-75
2022/04/28 05:47:21;;;;;;;;;;;14.00;99.90;;;;;;5008691;28;19943;-75
2022/04/28 05:49:47;;;;;;;;;;;14.00;99.90;;;;;;5006607;28;19909;-75
2022/04/28 05:52:12;;;;;;;;;;;14.10;99.90;;;;;;5010717;28;20445;-74
2022/04/28 05:54:40;;;;;;;;;;;14.10;99.90;;;;;;5008213;28;19909;-74
2022/04/28 05:57:05;;;;;;;;;;;14.20;99.90;;;;;;5007239;28;20004;-73
2022/04/28 05:59:31;;;;;;;;;;;14.20;99.90;;;;;;5008427;28;20040;-73
2022/04/28 06:01:58;;;;;;;;;;;14.30;99.90;;;;;;5007796;28;19928;-73
2022/04/28 06:04:31;;;;;;;;;;;14.30;99.90;;;;;;5009418;28;19917;-73
2022/04/28 06:07:15;;;;;;;;;;;14.40;99.90;;;;;;5001537;28;19920;-74
2022/04/28 06:09:46;;;;;;;;;;;14.50;99.90;;;;;;5005727;28;20235;-73
2022/04/28 06:12:11;;;;;;;;;;;14.60;99.90;;;;;;5006100;28;19933;-73
2022/04/28 06:14:38;;;;;;;;;;;14.70;99.90;;;;;;5002177;28;20369;-73
2022/04/28 06:17:03;;;;;;;;;;;14.80;99.90;;;;;;5006223;28;20340;-73
2022/04/28 06:19:29;;;;;;;;;;;14.90;99.90;;;;;;5003686;28;19959;-73
2022/04/28 06:21:54;;;;;;;;;;;15.00;99.90;;;;;;5006513;28;19921;-74
2022/04/28 06:24:20;;;;;;;;;;;15.10;99.90;;;;;;5005274;28;19921;-74
2022/04/28 06:26:45;;;;;;;;;;;15.10;99.90;;;;;;5004442;28;19932;-74
2022/04/28 06:29:11;;;;;;;;;;;15.20;99.90;;;;;;4999355;28;20529;-74
2022/04/28 06:31:39;;;;;;;;;;;15.30;99.90;;;;;;5000540;28;19921;-74
2022/04/28 06:34:05;;;;;;;;;;;15.30;99.90;;;;;;5002822;28;19913;-74
2022/04/28 06:36:34;;;;;;;;;;;15.40;99.90;;;;;;5007652;28;20325;-73
2022/04/28 06:39:02;;;;;;;;;;;15.50;99.90;;;;;;5009766;28;19920;-74
2022/04/28 06:41:27;;;;;;;;;;;15.50;99.90;;;;;;4999008;28;19940;-73
2022/04/28 06:43:55;;;;;;;;;;;15.70;99.90;;;;;;5005731;28;19929;-73
2022/04/28 06:46:23;;;;;;;;;;;15.80;99.90;;;;;;5006357;28;20016;-73
2022/04/28 06:48:53;;;;;;;;;;;15.80;99.90;;;;;;5008537;28;19968;-75
2022/04/28 06:51:19;;;;;;;;;;;15.80;99.90;;;;;;5008921;28;19909;-74
2022/04/28 06:53:44;;;;;;;;;;;15.90;99.90;;;;;;5005873;28;20051;-74
2022/04/28 06:56:10;;;;;;;;;;;16.00;99.90;;;;;;5007180;28;20056;-73
2022/04/28 06:58:37;;;;;;;;;;;16.00;99.90;;;;;;5008100;28;19921;-73
2022/04/28 07:01:03;;;;;;;;;;;16.00;99.90;;;;;;5010079;28;19915;-73
2022/04/28 07:03:29;;;;;;;;;;;16.10;99.90;;;;;;5006854;28;20273;-74
2022/04/28 07:05:54;;;;;;;;;;;16.20;99.90;;;;;;5011569;28;20065;-73
2022/04/28 07:08:20;;;;;;;;;;;16.30;99.90;;;;;;5008671;28;22490;-73
2022/04/28 07:10:59;;;;;;;;;;;16.30;99.90;;;;;;5010046;28;20368;-72
2022/04/28 07:13:30;;;;;;;;;;;16.40;99.90;;;;;;5009207;28;19909;-68
2022/04/28 07:15:55;;;;;;;;;;;16.50;99.90;;;;;;5009435;28;19967;-70
2022/04/28 07:18:21;;;;;;;;;;;16.40;99.90;;;;;;5007443;28;19920;-69
2022/04/28 07:20:47;;;;;;;;;;;16.40;99.90;;;;;;5009070;28;19909;-67
2022/04/28 07:23:14;;;;;;;;;;;16.40;99.90;;;;;;5012352;28;19916;-69
2022/04/28 07:25:40;;;;;;;;;;;16.40;99.90;;;;;;5025530;28;20355;-70
2022/04/28 07:28:05;;;;;;;;;;;16.50;99.90;;;;;;5013458;28;19956;-70
2022/04/28 07:30:31;;;;;;;;;;;16.70;99.90;;;;;;5011280;28;19909;-70
2022/04/28 07:32:57;;;;;;;;;;;16.70;99.90;;;;;;5012333;28;19952;-68
2022/04/28 07:35:25;;;;;;;;;;;16.80;99.90;;;;;;5010249;28;19909;-68
2022/04/28 07:37:52;;;;;;;;;;;16.80;99.90;;;;;;5011007;28;19913;-68
2022/04/28 07:40:18;;;;;;;;;;;16.90;99.90;;;;;;5012044;28;20388;-69
2022/04/28 07:42:44;;;;;;;;;;;16.90;99.90;;;;;;5007069;28;19952;-68
2022/04/28 07:45:10;;;;;;;;;;;16.90;99.90;;;;;;5006236;28;20471;-68
2022/04/28 07:47:36;;;;;;;;;;;16.90;99.90;;;;;;5009424;28;19914;-68
2022/04/28 07:50:02;;;;;;;;;;;16.90;99.90;;;;;;5011415;28;19915;-68
2022/04/28 07:52:33;;;;;;;;;;;17.00;99.90;;;;;;5015635;28;20091;-69
2022/04/28 07:55:02;;;;;;;;;;;17.10;99.90;;;;;;5014311;28;19909;-68
2022/04/28 07:57:28;;;;;;;;;;;17.20;99.90;;;;;;5013355;28;19913;-69
2022/04/28 07:59:54;;;;;;;;;;;17.20;99.90;;;;;;5024174;28;19916;-69
2022/04/28 08:02:20;;;;;;;;;;;17.30;99.90;;;;;;5029381;28;19913;-70
2022/04/28 08:04:45;;;;;;;;;;;17.30;99.90;;;;;;5014196;28;19956;-70
2022/04/28 08:07:11;;;;;;;;;;;17.20;99.90;;;;;;5009216;28;19920;-69
2022/04/28 08:09:36;;;;;;;;;;;17.30;99.90;;;;;;5006681;28;20278;-70
2022/04/28 08:12:02;;;;;;;;;;;17.40;99.90;;;;;;5009607;28;19909;-69
2022/04/28 08:14:28;;;;;;;;;;;17.40;99.90;;;;;;5012373;28;19909;-72
2022/04/28 08:16:54;;;;;;;;;;;17.50;99.90;;;;;;5012353;28;19996;-72
2022/04/28 08:19:20;;;;;;;;;;;17.60;99.90;;;;;;5008087;28;19909;-70
2022/04/28 08:21:49;;;;;;;;;;;17.50;99.90;;;;;;5008825;28;20358;-71
2022/04/28 08:24:15;;;;;;;;;;;17.60;99.90;;;;;;5010701;28;19913;-72
2022/04/28 08:26:41;;;;;;;;;;;17.60;99.90;;;;;;5012137;28;20361;-71
2022/04/28 08:29:06;;;;;;;;;;;17.70;99.90;;;;;;5009611;28;19916;-70
2022/04/28 08:31:32;;;;;;;;;;;17.80;99.90;;;;;;5011265;28;19933;-69
2022/04/28 08:33:58;;;;;;;;;;;17.70;99.90;;;;;;5010651;28;19932;-71
2022/04/28 08:36:25;;;;;;;;;;;17.60;99.90;;;;;;5011982;28;20311;-70
2022/04/28 08:38:50;;;;;;;;;;;17.60;99.90;;;;;;5008023;28;20007;-71
2022/04/28 08:41:32;;;;;;;;;;;17.60;99.90;;;;;;5008116;28;19956;-71
2022/04/28 08:43:59;;;;;;;;;;;17.70;99.90;;;;;;5004478;28;19910;-71
2022/04/28 08:49:10;;;;;;;;;;;18.00;99.90;;;;;;5008632;28;19916;-70
2022/04/28 08:51:37;;;;;;;;;;;17.90;99.90;;;;;;5012144;28;20044;-70
2022/04/28 08:54:04;;;;;;;;;;;17.80;99.70;;;;;;5011170;28;20539;-70
2022/04/28 08:56:29;;;;;;;;;;;17.80;99.90;;;;;;5009334;28;19910;-70
2022/04/28 08:58:55;;;;;;;;;;;17.90;99.50;;;;;;5010417;28;20009;-70
2022/04/28 09:01:25;;;;;;;;;;;17.90;99.30;;;;;;5011904;28;19912;-69
2022/04/28 09:03:51;;;;;;;;;;;18.00;99.40;;;;;;5009335;28;19913;-69
2022/04/28 09:06:17;;;;;;;;;;;18.10;99.70;;;;;;5011602;28;19909;-70
2022/04/28 09:08:44;;;;;;;;;;;18.20;99.20;;;;;;5011378;28;19952;-70
2022/04/28 09:11:23;;;;;;;;;;;18.40;99.10;;;;;;5011578;28;19906;-70
2022/04/28 09:16:45;;;;;;;;;;;18.50;98.70;;;;;;5011285;28;19917;-69
2022/04/28 09:19:22;;;;;;;;;;;18.70;99.00;;;;;;5009190;28;19924;-70
2022/04/28 09:21:50;;;;;;;;;;;18.90;98.30;;;;;;5009966;28;19968;-70
2022/04/28 09:24:16;;;;;;;;;;;18.90;97.80;;;;;;5010282;28;19913;-70
2022/04/28 09:26:41;;;;;;;;;;;18.80;97.40;;;;;;5009758;28;20274;-70
2022/04/28 09:29:14;;;;;;;;;;;19.00;98.00;;;;;;5008472;28;19964;-69
2022/04/28 09:31:42;;;;;;;;;;;19.10;96.20;;;;;;5005721;28;19932;-70
2022/04/28 09:34:10;;;;;;;;;;;18.90;96.50;;;;;;5004285;28;19917;-69
2022/04/28 09:36:36;;;;;;;;;;;18.70;95.90;;;;;;5009997;28;19960;-71
2022/04/28 09:39:02;;;;;;;;;;;18.80;95.80;;;;;;5011852;28;19916;-71
2022/04/28 09:44:13;;;;;;;;;;;18.40;96.20;;;;;;5010858;28;19979;-69
2022/04/28 09:46:39;;;;;;;;;;;18.60;95.60;;;;;;5008992;28;20302;-69
2022/04/28 09:49:05;;;;;;;;;;;18.70;96.50;;;;;;5008700;28;19951;-68
2022/04/28 09:51:31;;;;;;;;;;;18.80;95.60;;;;;;5010225;28;19917;-70
2022/04/28 09:53:58;;;;;;;;;;;18.60;95.40;;;;;;5008847;28;19992;-69
2022/04/28 09:56:34;;;;;;;;;;;18.40;95.20;;;;;;5011383;28;20289;-69
2022/04/28 09:58:59;;;;;;;;;;;18.40;94.60;;;;;;5002473;28;19963;-69
2022/04/28 10:01:27;;;;;;;;;;;18.50;95.70;;;;;;5010662;28;19910;-69
2022/04/28 10:03:52;;;;;;;;;;;18.50;95.60;;;;;;5011018;28;19948;-70
2022/04/28 10:06:18;;;;;;;;;;;18.60;95.70;;;;;;5008649;28;20435;-71
2022/04/28 10:08:44;;;;;;;;;;;18.80;95.60;;;;;;5011406;28;19905;-71
2022/04/28 10:11:14;;;;;;;;;;;19.00;95.20;;;;;;5004850;28;19913;-69
2022/04/28 10:13:40;;;;;;;;;;;19.00;95.10;;;;;;5008617;28;20338;-68
2022/04/28 10:16:13;;;;;;;;;;;19.00;95.20;;;;;;5006837;28;19916;-69
2022/04/28 10:18:58;;;;;;;;;;;19.00;95.50;;;;;;5008331;28;19920;-68
2022/04/28 10:21:28;;;;;;;;;;;19.00;95.30;;;;;;5011000;28;19909;-69
2022/04/28 10:32:24;;;;;;;;;;;19.40;95.60;;;;;;5008417;28;20024;-71
2022/04/28 10:34:58;;;;;;;;;;;19.50;95.20;;;;;;5010885;28;19910;-71
2022/04/28 10:37:30;;;;;;;;;;;19.60;95.70;;;;;;5013435;28;19913;-72
2022/04/28 10:39:56;;;;;;;;;;;19.50;95.60;;;;;;5013164;28;19960;-71
2022/04/28 10:42:28;;;;;;;;;;;19.60;95.80;;;;;;5009732;28;19944;-71
2022/04/28 10:44:54;;;;;;;;;;;19.60;95.80;;;;;;5015065;28;19932;-70
2022/04/28 10:47:29;;;;;;;;;;;19.40;95.90;;;;;;5016512;28;19956;-71
2022/04/28 10:49:54;;;;;;;;;;;19.40;96.80;;;;;;5015229;28;19905;-69
2022/04/28 10:52:21;;;;;;;;;;;19.60;96.90;;;;;;5012651;28;19920;-70
2022/04/28 10:54:54;;;;;;;;;;;19.90;96.60;;;;;;5011285;28;19910;-70
2022/04/28 10:57:35;;;;;;;;;;;20.00;96.10;;;;;;5012714;28;20369;-69
2022/04/28 11:00:03;;;;;;;;;;;19.80;95.80;;;;;;5013081;28;20052;-70
2022/04/28 11:02:28;;;;;;;;;;;19.70;96.40;;;;;;5010129;28;20007;-70
2022/04/28 11:05:01;;;;;;;;;;;19.80;96.40;;;;;;5014556;28;20376;-68
2022/04/28 11:07:31;;;;;;;;;;;19.80;96.50;;;;;;5010672;28;19909;-69
2022/04/28 11:10:00;;;;;;;;;;;19.90;96.20;;;;;;5011043;28;19916;-68
2022/04/28 11:12:41;;;;;;;;;;;19.90;96.30;;;;;;5013069;28;19909;-69
2022/04/28 11:15:13;;;;;;;;;;;19.70;96.30;;;;;;5007205;28;20570;-70
2022/04/28 11:17:41;;;;;;;;;;;19.80;96.70;;;;;;5010196;28;19959;-69
2022/04/28 11:20:12;;;;;;;;;;;19.90;96.50;;;;;;5012086;28;20000;-69
2022/04/28 11:22:48;;;;;;;;;;;20.00;96.40;;;;;;5010851;28;19916;-70
2022/04/28 11:25:14;;;;;;;;;;;20.00;95.60;;;;;;5007502;28;19917;-69
2022/04/28 11:27:40;;;;;;;;;;;19.90;95.50;;;;;;5008940;28;19932;-69
2022/04/28 11:30:07;;;;;;;;;;;20.00;95.10;;;;;;5011149;28;20365;-71
2022/04/28 11:32:32;;;;;;;;;;;19.80;95.20;;;;;;5010534;28;20051;-70
2022/04/28 11:34:59;;;;;;;;;;;19.70;96.30;;;;;;5009531;28;20357;-69
2022/04/28 11:37:28;;;;;;;;;;;20.00;95.90;;;;;;5013194;28;19915;-69
2022/04/28 11:39:54;;;;;;;;;;;20.10;95.40;;;;;;5013491;28;19932;-70
2022/04/28 11:42:21;;;;;;;;;;;20.10;94.20;;;;;;5013262;28;19916;-69
2022/04/28 11:44:53;;;;;;;;;;;19.70;94.30;;;;;;5014284;28;19909;-69
2022/04/28 11:47:19;;;;;;;;;;;19.70;95.10;;;;;;5011795;28;19992;-70
2022/04/28 11:49:45;;;;;;;;;;;20.00;95.40;;;;;;5013557;28;19913;-70
2022/04/28 11:52:21;;;;;;;;;;;20.20;95.30;;;;;;5013779;28;19905;-70
2022/04/28 11:55:06;;;;;;;;;;;20.40;95.30;;;;;;4993894;28;20010;-72
2022/04/28 11:57:32;;;;;;;;;;;20.40;94.90;;;;;;5002997;28;19983;-70
2022/04/28 11:59:58;;;;;;;;;;;20.50;95.70;;;;;;5033652;28;19904;-71
2022/04/28 12:02:23;;;;;;;;;;;20.60;95.00;;;;;;5034182;28;19905;-71
2022/04/28 12:04:49;;;;;;;;;;;20.30;94.10;;;;;;5031883;28;19916;-71
2022/04/28 12:07:22;;;;;;;;;;;20.40;95.10;;;;;;5012893;28;19972;-71
2022/04/28 12:15:20;;;;;;;;;;;20.20;94.10;;;;;;5012291;28;19960;-71
2022/04/28 12:20:59;;;;;;;;;;;20.60;95.00;;;;;;5011274;28;20213;-70
2022/04/28 12:23:30;;;;;;;;;;;20.50;95.00;;;;;;5011466;28;19913;-69
2022/04/28 12:26:00;;;;;;;;;;;20.60;95.00;;;;;;5009373;28;19964;-71
2022/04/28 12:28:33;;;;;;;;;;;20.60;95.10;;;;;;5013727;28;20238;-71
2022/04/28 12:31:04;;;;;;;;;;;20.60;95.00;;;;;;5010034;28;20285;-71
2022/04/28 12:33:35;;;;;;;;;;;20.70;95.30;;;;;;5011959;28;19913;-70
2022/04/28 12:36:01;;;;;;;;;;;20.80;94.50;;;;;;5007658;28;20439;-72
2022/04/28 12:38:28;;;;;;;;;;;20.90;94.40;;;;;;5008546;28;20288;-72
2022/04/28 12:40:54;;;;;;;;;;;20.70;93.90;;;;;;5014088;28;19905;-71
2022/04/28 12:43:49;;;;;;;;;;;20.70;93.70;;;;;;5011454;28;20404;-73
2022/04/28 12:46:18;;;;;;;;;;;20.90;93.30;;;;;;5003816;28;19914;-71
2022/04/28 12:48:51;;;;;;;;;;;20.70;92.60;;;;;;4991530;28;20040;-71
2022/04/28 12:51:18;;;;;;;;;;;20.40;92.90;;;;;;5011333;28;19915;-72
2022/04/28 12:53:45;;;;;;;;;;;20.40;93.70;;;;;;5011069;28;20342;-73
2022/04/28 12:56:12;;;;;;;;;;;20.70;93.70;;;;;;5013786;28;19909;-74
2022/04/28 12:58:42;;;;;;;;;;;20.90;94.00;;;;;;5011996;28;20014;-71
2022/04/28 13:01:09;;;;;;;;;;;21.10;93.20;;;;;;5012580;28;20292;-72
2022/04/28 13:03:40;;;;;;;;;;;21.10;92.90;;;;;;5013070;28;19913;-71
2022/04/28 13:06:07;;;;;;;;;;;21.10;93.40;;;;;;5012415;28;20353;-72
2022/04/28 13:08:33;;;;;;;;;;;21.10;92.70;;;;;;5006194;28;19963;-72
2022/04/28 13:10:59;;;;;;;;;;;21.10;93.50;;;;;;5010956;28;20004;-73
2022/04/28 13:13:25;;;;;;;;;;;21.40;93.20;;;;;;5007588;28;19910;-71
2022/04/28 13:15:51;;;;;;;;;;;21.30;92.40;;;;;;5010107;28;19932;-73
2022/04/28 13:18:16;;;;;;;;;;;21.20;92.20;;;;;;5009120;28;20001;-73
2022/04/28 13:20:42;;;;;;;;;;;21.20;92.50;;;;;;5009926;28;19939;-72
2022/04/28 13:23:07;;;;;;;;;;;21.10;92.70;;;;;;5008840;28;20396;-72
2022/04/28 13:25:33;;;;;;;;;;;21.10;92.60;;;;;;5008735;28;19917;-72
2022/04/28 13:27:58;;;;;;;;;;;21.20;92.20;;;;;;5010895;28;19916;-72
2022/04/28 13:30:24;;;;;;;;;;;21.20;91.90;;;;;;5009803;28;19972;-74
2022/04/28 13:32:50;;;;;;;;;;;21.30;91.90;;;;;;5009541;28;19936;-72
2022/04/28 13:35:15;;;;;;;;;;;21.20;92.10;;;;;;5008433;28;19913;-71
2022/04/28 13:37:41;;;;;;;;;;;21.10;92.70;;;;;;5006505;28;19921;-74
2022/04/28 13:40:07;;;;;;;;;;;21.30;92.70;;;;;;5006443;28;19945;-73
2022/04/28 13:42:33;;;;;;;;;;;21.30;92.50;;;;;;5010002;28;19963;-73
2022/04/28 13:44:58;;;;;;;;;;;21.30;92.60;;;;;;5011941;28;19909;-73
2022/04/28 13:47:25;;;;;;;;;;;21.30;91.40;;;;;;5009012;28;19996;-74
2022/04/28 13:49:50;;;;;;;;;;;21.20;92.90;;;;;;5011609;28;19912;-73
2022/04/28 13:52:16;;;;;;;;;;;21.40;92.00;;;;;;5010199;28;19999;-71
2022/04/28 13:54:41;;;;;;;;;;;21.40;92.90;;;;;;5011480;28;19913;-74
2022/04/28 13:57:07;;;;;;;;;;;21.40;92.50;;;;;;5009607;28;20311;-71
2022/04/28 13:59:33;;;;;;;;;;;21.50;92.60;;;;;;5008840;28;19910;-73
2022/04/28 14:01:59;;;;;;;;;;;21.30;92.80;;;;;;5008659;28;20247;-71
2022/04/28 14:04:25;;;;;;;;;;;21.30;91.40;;;;;;5011088;28;19988;-72
2022/04/28 14:06:54;;;;;;;;;;;21.40;92.10;;;;;;5009261;28;19909;-73
2022/04/28 14:09:20;;;;;;;;;;;21.60;92.30;;;;;;5009678;28;20281;-72
2022/04/28 14:11:46;;;;;;;;;;;21.60;91.10;;;;;;5008374;28;19909;-73
2022/04/28 14:14:12;;;;;;;;;;;21.70;91.80;;;;;;5009361;28;20015;-72
2022/04/28 14:16:37;;;;;;;;;;;21.70;91.50;;;;;;5007273;28;19913;-73
2022/04/28 14:19:03;;;;;;;;;;;21.70;91.90;;;;;;5009193;28;20108;-73
2022/04/28 14:21:29;;;;;;;;;;;21.80;92.20;;;;;;5011663;28;19905;-74
2022/04/28 14:23:55;;;;;;;;;;;21.70;92.10;;;;;;5010466;28;19910;-73
2022/04/28 14:26:20;;;;;;;;;;;21.70;92.20;;;;;;5010251;28;19912;-72
2022/04/28 14:28:46;;;;;;;;;;;21.70;92.00;;;;;;5010615;28;20396;-73
2022/04/28 14:31:12;;;;;;;;;;;21.70;91.80;;;;;;5011034;28;19910;-73
2022/04/28 14:33:37;;;;;;;;;;;21.90;91.90;;;;;;5008231;28;19919;-73
2022/04/28 14:36:05;;;;;;;;;;;21.80;91.90;;;;;;5007628;28;19916;-73
2022/04/28 14:38:31;;;;;;;;;;;21.80;91.30;;;;;;5011286;28;19918;-72
2022/04/28 14:40:57;;;;;;;;;;;21.70;91.60;;;;;;5010193;28;19909;-73
2022/04/28 14:43:22;;;;;;;;;;;21.60;91.60;;;;;;5009125;28;19913;-73
2022/04/28 14:45:48;;;;;;;;;;;21.50;91.90;;;;;;5009523;28;19906;-73
2022/04/28 14:48:16;;;;;;;;;;;21.60;91.80;;;;;;5007067;28;19921;-73
2022/04/28 14:53:28;;;;;;;;;;;21.60;91.50;;;;;;5008907;28;19970;-74
2022/04/28 14:55:54;;;;;;;;;;;21.60;91.00;;;;;;5010386;28;20320;-73
2022/04/28 14:58:20;;;;;;;;;;;21.50;90.80;;;;;;5009311;28;20378;-71
2022/04/28 15:00:48;;;;;;;;;;;21.40;90.90;;;;;;5009616;28;19993;-72